Time;durP1;ratioP1;P1;durP2;ratioP2;P2;SDS_P1;SDS_P2;PMS_P1;PMS_P2;Temp;Humidity;BMP_temperature;BMP_pressure;BME280_temperature;BME280_humidity;BME280_pressure;Samples;Min_cycle;Max_cycle;Signal;HPM_P1;HPM_P2
2022/11/05 00:09:36;;;;;;;1.65;1.55;;;8.50;99.90;;;;;;5072212;28;20206;-67
2022/11/05 00:17:35;;;;;;;4.55;2.10;;;8.50;99.90;;;;;;5073774;28;20675;-69
2022/11/05 00:20:02;;;;;;;1.60;1.50;;;8.50;99.90;;;;;;5073496;28;20201;-69
2022/11/05 00:25:19;;;;;;;2.22;1.50;;;8.50;99.90;;;;;;5073442;28;20228;-69
2022/11/05 00:27:48;;;;;;;1.95;1.58;;;8.50;99.90;;;;;;5073565;28;20205;-69
2022/11/05 00:30:18;;;;;;;1.83;1.40;;;8.50;99.90;;;;;;5073267;28;20291;-68
2022/11/05 00:32:46;;;;;;;2.50;1.60;;;8.40;99.90;;;;;;5072931;28;20203;-68
2022/11/05 00:35:13;;;;;;;1.77;1.50;;;8.40;99.90;;;;;;5073013;28;20228;-68
2022/11/05 00:37:40;;;;;;;1.60;1.50;;;8.50;99.90;;;;;;5073509;28;20211;-68
2022/11/05 00:40:09;;;;;;;1.63;1.35;;;8.40;99.90;;;;;;5073037;28;20201;-68
2022/11/05 00:45:22;;;;;;;1.27;1.17;;;8.50;99.90;;;;;;5073243;28;20231;-67
2022/11/05 00:50:33;;;;;;;1.65;1.23;;;8.40;99.90;;;;;;5073289;28;20196;-68
2022/11/05 00:53:01;;;;;;;1.27;1.17;;;8.40;99.90;;;;;;5072201;28;20212;-68
2022/11/05 00:55:33;;;;;;;1.45;1.15;;;8.40;99.90;;;;;;5073245;28;20229;-67
2022/11/05 00:58:03;;;;;;;2.10;1.15;;;8.40;99.90;;;;;;5072429;28;20205;-68
2022/11/05 01:00:33;;;;;;;1.10;0.93;;;8.50;99.90;;;;;;5073021;28;20197;-68
2022/11/05 01:03:02;;;;;;;1.42;1.15;;;8.50;99.90;;;;;;5072154;28;20201;-66
2022/11/05 01:05:29;;;;;;;1.38;1.13;;;8.40;99.90;;;;;;5072808;28;20258;-67
2022/11/05 01:07:57;;;;;;;1.92;1.08;;;8.50;99.90;;;;;;5072851;28;20200;-67
2022/11/05 01:10:24;;;;;;;1.33;1.00;;;8.40;99.90;;;;;;5072564;28;20215;-67
2022/11/05 01:12:51;;;;;;;1.10;0.90;;;8.40;99.90;;;;;;5072119;28;20216;-67
2022/11/05 01:15:18;;;;;;;1.33;1.20;;;8.40;99.90;;;;;;5072371;28;20225;-68
2022/11/05 01:17:46;;;;;;;1.10;0.90;;;8.40;99.90;;;;;;5072737;28;20204;-68
2022/11/05 01:20:14;;;;;;;1.30;1.20;;;8.40;99.90;;;;;;5072385;28;20212;-68
2022/11/05 01:22:40;;;;;;;1.55;1.30;;;8.40;99.90;;;;;;5072132;28;20202;-68
2022/11/05 01:25:09;;;;;;;1.20;1.10;;;8.40;99.90;;;;;;5072626;28;20645;-68
2022/11/05 01:27:36;;;;;;;1.00;0.85;;;8.40;99.90;;;;;;5073013;28;20212;-69
2022/11/05 01:30:04;;;;;;;1.20;1.10;;;8.40;99.90;;;;;;5072304;28;20207;-69
2022/11/05 01:32:30;;;;;;;1.30;1.20;;;8.40;99.90;;;;;;5071798;28;20207;-68
2022/11/05 01:34:58;;;;;;;1.30;1.00;;;8.40;99.90;;;;;;5072028;28;20228;-69
2022/11/05 01:37:25;;;;;;;1.15;1.02;;;8.40;99.90;;;;;;5071999;28;20208;-69
2022/11/05 01:39:52;;;;;;;1.50;1.05;;;8.40;99.90;;;;;;5071992;28;20696;-69
2022/11/05 01:42:22;;;;;;;1.45;1.35;;;8.40;99.90;;;;;;5071476;28;20201;-68
2022/11/05 01:44:54;;;;;;;1.88;1.35;;;8.40;99.90;;;;;;5071911;28;20761;-67
2022/11/05 01:47:29;;;;;;;1.40;1.30;;;8.40;99.90;;;;;;5072180;28;20205;-68
2022/11/05 01:50:00;;;;;;;1.77;1.15;;;8.40;99.90;;;;;;5071754;28;20699;-68
2022/11/05 01:52:29;;;;;;;1.38;1.25;;;8.40;99.90;;;;;;5071357;28;20209;-67
2022/11/05 01:54:56;;;;;;;1.02;0.93;;;8.40;99.90;;;;;;5071593;28;20232;-69
2022/11/05 01:57:23;;;;;;;1.35;1.10;;;8.40;99.90;;;;;;5071826;28;20589;-69
2022/11/05 01:59:56;;;;;;;2.55;1.00;;;8.40;99.90;;;;;;5071702;28;20325;-69
2022/11/05 02:02:24;;;;;;;2.25;1.48;;;8.40;99.90;;;;;;5071213;28;20679;-69
2022/11/05 02:04:54;;;;;;;1.38;1.27;;;8.30;99.90;;;;;;5071602;28;20245;-68
2022/11/05 02:07:25;;;;;;;1.15;1.05;;;8.30;99.90;;;;;;5071542;28;20201;-69
2022/11/05 02:09:59;;;;;;;1.50;1.27;;;8.40;99.90;;;;;;5071472;28;20585;-68
2022/11/05 02:12:27;;;;;;;1.20;1.10;;;8.40;99.90;;;;;;5070909;28;20215;-68
2022/11/05 02:14:54;;;;;;;7.60;1.95;;;8.40;99.90;;;;;;5071313;28;20625;-69
2022/11/05 02:17:34;;;;;;;1.35;1.10;;;8.40;99.90;;;;;;5071365;28;20697;-67
2022/11/05 02:20:33;;;;;;;1.10;1.00;;;8.40;99.90;;;;;;5071102;28;20214;-68
2022/11/05 02:23:30;;;;;;;1.25;1.15;;;8.40;99.90;;;;;;5070692;28;20201;-69
2022/11/05 02:26:34;;;;;;;1.10;1.00;;;8.40;99.90;;;;;;5070926;28;20227;-69
2022/11/05 02:29:34;;;;;;;1.10;0.98;;;8.40;99.90;;;;;;5070990;28;20205;-69
2022/11/05 02:32:07;;;;;;;1.60;1.15;;;8.40;99.90;;;;;;5070455;28;20204;-68
2022/11/05 02:34:46;;;;;;;2.13;1.35;;;8.40;99.90;;;;;;5070970;28;20749;-69
2022/11/05 02:37:18;;;;;;;1.20;1.10;;;8.40;99.90;;;;;;5070762;28;20204;-68
2022/11/05 02:39:54;;;;;;;1.20;1.10;;;8.40;99.90;;;;;;5071027;28;20230;-68
2022/11/05 02:42:30;;;;;;;1.35;1.00;;;8.40;99.90;;;;;;5070448;28;20208;-69
2022/11/05 02:45:05;;;;;;;1.63;1.20;;;8.40;99.90;;;;;;5070825;28;20220;-69
2022/11/05 02:47:41;;;;;;;1.40;1.20;;;8.40;99.90;;;;;;5070975;28;20208;-68
2022/11/05 02:50:18;;;;;;;1.65;1.20;;;8.40;99.90;;;;;;5070716;28;20691;-68
2022/11/05 02:52:57;;;;;;;1.15;1.05;;;8.40;99.90;;;;;;5070451;28;20219;-68
2022/11/05 02:55:29;;;;;;;1.20;1.10;;;8.40;99.90;;;;;;5070566;28;20624;-69
2022/11/05 02:57:58;;;;;;;0.90;0.80;;;8.40;99.90;;;;;;5070775;28;20208;-68
2022/11/05 03:00:46;;;;;;;1.52;1.30;;;8.40;99.90;;;;;;5070575;28;20208;-69
2022/11/05 03:03:26;;;;;;;1.15;1.05;;;8.40;99.90;;;;;;5070082;28;20288;-69
2022/11/05 03:06:27;;;;;;;1.27;1.10;;;8.40;99.90;;;;;;5070478;28;20231;-68
2022/11/05 03:09:22;;;;;;;1.42;1.30;;;8.50;99.90;;;;;;5070628;28;20207;-68
2022/11/05 03:12:02;;;;;;;1.48;1.38;;;8.40;99.90;;;;;;5069939;28;20208;-68
2022/11/05 03:14:39;;;;;;;1.30;1.20;;;8.40;99.90;;;;;;5070600;28;20232;-67
2022/11/05 03:17:13;;;;;;;1.17;1.08;;;8.40;99.90;;;;;;5070428;28;20214;-68
2022/11/05 03:19:48;;;;;;;1.00;0.90;;;8.40;99.90;;;;;;5070602;28;20219;-67
2022/11/05 03:22:20;;;;;;;1.23;1.10;;;8.50;99.90;;;;;;5069362;28;20631;-68
2022/11/05 03:24:52;;;;;;;2.40;1.50;;;8.40;99.90;;;;;;5070965;28;20216;-68
2022/11/05 03:27:25;;;;;;;1.55;1.13;;;8.50;99.90;;;;;;5070469;28;20203;-68
2022/11/05 03:29:58;;;;;;;1.40;1.20;;;8.40;99.90;;;;;;5070410;28;20559;-68
2022/11/05 03:32:27;;;;;;;2.13;1.50;;;8.50;99.90;;;;;;5070046;28;20208;-68
2022/11/05 03:35:01;;;;;;;1.70;1.42;;;8.40;99.90;;;;;;5070227;28;20227;-68
2022/11/05 03:37:31;;;;;;;1.55;1.45;;;8.40;99.90;;;;;;5070677;28;20200;-68
2022/11/05 03:40:01;;;;;;;1.60;1.30;;;8.40;99.90;;;;;;5070222;28;20204;-68
2022/11/05 03:42:32;;;;;;;1.70;1.60;;;8.40;99.90;;;;;;5070017;28;20212;-68
2022/11/05 03:45:03;;;;;;;1.40;1.20;;;8.40;99.90;;;;;;5070293;28;20860;-68
2022/11/05 03:47:34;;;;;;;1.65;1.52;;;8.40;99.90;;;;;;5070256;28;20211;-66
2022/11/05 03:50:12;;;;;;;1.50;1.20;;;8.40;99.90;;;;;;5070182;28;20210;-68
2022/11/05 03:52:45;;;;;;;1.48;1.38;;;8.40;99.90;;;;;;5069576;28;20207;-68
2022/11/05 03:55:13;;;;;;;1.50;1.40;;;8.40;99.90;;;;;;5069917;28;20227;-68
2022/11/05 03:57:44;;;;;;;2.35;1.60;;;8.40;99.90;;;;;;5070210;28;20216;-68
2022/11/05 04:00:12;;;;;;;1.75;1.45;;;8.40;99.90;;;;;;5069980;28;20232;-69
2022/11/05 04:02:39;;;;;;;1.40;1.30;;;8.50;99.90;;;;;;5069655;28;20216;-67
2022/11/05 04:05:07;;;;;;;1.55;1.30;;;8.50;99.90;;;;;;5069857;28;20217;-68
2022/11/05 04:18:31;;;;;;;1.80;1.70;;;8.40;99.90;;;;;;5070199;28;20213;-68
2022/11/05 04:26:26;;;;;;;2.17;1.50;;;8.40;99.90;;;;;;5059155;28;20196;-67
2022/11/05 04:31:37;;;;;;;1.85;1.60;;;8.40;99.90;;;;;;5069477;28;20730;-68
2022/11/05 04:34:05;;;;;;;2.03;1.65;;;8.40;99.90;;;;;;5070708;28;20201;-68
2022/11/05 04:36:33;;;;;;;2.33;1.95;;;8.40;99.90;;;;;;5073428;28;20581;-67
2022/11/05 04:39:00;;;;;;;2.22;1.75;;;8.50;99.90;;;;;;5072951;28;20213;-68
2022/11/05 04:41:27;;;;;;;1.88;1.67;;;8.40;99.90;;;;;;5072831;28;20201;-68
2022/11/05 04:43:53;;;;;;;2.40;1.90;;;8.40;99.90;;;;;;5073004;28;20231;-66
2022/11/05 04:46:20;;;;;;;1.92;1.73;;;8.50;99.90;;;;;;5073017;28;20221;-68
2022/11/05 04:48:47;;;;;;;2.08;1.30;;;8.40;99.90;;;;;;5073201;28;20207;-68
2022/11/05 04:51:14;;;;;;;1.65;1.55;;;8.40;99.90;;;;;;5072356;28;20576;-68
2022/11/05 04:53:42;;;;;;;1.90;1.60;;;8.40;99.90;;;;;;5073188;28;20572;-68
2022/11/05 04:56:10;;;;;;;1.35;1.02;;;8.50;99.90;;;;;;5072632;28;20233;-68
2022/11/05 04:58:39;;;;;;;1.60;1.30;;;8.40;99.90;;;;;;5073084;28;20200;-66
2022/11/05 05:01:06;;;;;;;1.13;1.02;;;8.40;99.90;;;;;;5072540;28;20201;-66
2022/11/05 05:03:33;;;;;;;1.33;1.23;;;8.40;99.90;;;;;;5072511;28;20672;-66
2022/11/05 05:06:00;;;;;;;2.08;1.65;;;8.40;99.90;;;;;;5072730;28;20274;-68
2022/11/05 05:08:26;;;;;;;2.08;1.58;;;8.40;99.90;;;;;;5072716;28;20556;-68
2022/11/05 05:10:55;;;;;;;1.55;1.00;;;8.40;99.90;;;;;;5072504;28;20214;-68
2022/11/05 05:13:21;;;;;;;1.20;1.02;;;8.40;99.90;;;;;;5071835;28;20915;-68
2022/11/05 05:15:48;;;;;;;2.85;1.60;;;8.40;99.90;;;;;;5072489;28;20306;-68
2022/11/05 05:18:15;;;;;;;2.03;1.42;;;8.40;99.90;;;;;;5072353;28;20203;-68
2022/11/05 05:23:26;;;;;;;1.63;1.10;;;8.40;99.90;;;;;;5072094;28;20206;-68
2022/11/05 05:25:53;;;;;;;1.50;1.30;;;8.40;99.90;;;;;;5072210;28;20668;-68
2022/11/05 05:28:21;;;;;;;1.67;1.38;;;8.40;99.90;;;;;;5072476;28;20200;-68
2022/11/05 05:30:47;;;;;;;1.45;1.35;;;8.40;99.90;;;;;;5072248;28;20201;-68
2022/11/05 05:33:14;;;;;;;2.20;1.40;;;8.40;99.90;;;;;;5071860;28;20229;-68
2022/11/05 05:35:41;;;;;;;1.65;1.55;;;8.40;99.90;;;;;;5071800;28;20228;-68
2022/11/05 05:38:07;;;;;;;1.92;1.83;;;8.40;99.90;;;;;;5072101;28;20200;-66
2022/11/05 05:40:34;;;;;;;2.95;1.55;;;8.40;99.90;;;;;;5072066;28;20203;-67
2022/11/05 05:43:01;;;;;;;1.60;1.40;;;8.40;99.90;;;;;;5071353;28;20228;-67
2022/11/05 05:45:29;;;;;;;1.60;1.10;;;8.40;99.90;;;;;;5071913;28;20359;-68
2022/11/05 05:47:56;;;;;;;1.38;1.23;;;8.40;99.90;;;;;;5071819;28;20700;-68
2022/11/05 05:50:23;;;;;;;1.40;1.30;;;8.40;99.90;;;;;;5071996;28;20294;-67
2022/11/05 05:52:49;;;;;;;1.77;1.42;;;8.40;99.90;;;;;;5071373;28;20676;-67
2022/11/05 05:55:16;;;;;;;1.60;1.50;;;8.40;99.90;;;;;;5071638;28;20225;-68
2022/11/05 05:57:43;;;;;;;2.25;2.05;;;8.40;99.90;;;;;;5072030;28;20197;-67
2022/11/05 06:00:11;;;;;;;1.60;1.30;;;8.40;99.90;;;;;;5071436;28;20220;-67
2022/11/05 06:02:39;;;;;;;1.88;1.60;;;8.40;99.90;;;;;;5071211;28;20197;-67
2022/11/05 06:05:06;;;;;;;1.77;1.20;;;8.40;99.90;;;;;;5071353;28;20220;-68
2022/11/05 06:07:33;;;;;;;2.40;1.50;;;8.40;99.90;;;;;;5071729;28;20214;-68
2022/11/05 06:10:00;;;;;;;2.15;1.65;;;8.40;99.90;;;;;;5071254;28;20204;-66
2022/11/05 06:12:29;;;;;;;1.60;1.40;;;8.40;99.90;;;;;;5136086;22;20225;-67
2022/11/05 06:14:56;;;;;;;1.77;1.38;;;8.40;99.90;;;;;;5067604;28;20228;-67
2022/11/05 06:17:22;;;;;;;1.17;1.08;;;8.40;99.90;;;;;;5069978;28;20243;-67
2022/11/05 06:19:50;;;;;;;1.63;1.30;;;8.40;99.90;;;;;;5070721;28;20700;-67
2022/11/05 06:22:17;;;;;;;2.20;1.73;;;8.40;99.90;;;;;;5070513;28;20208;-67
2022/11/05 06:24:44;;;;;;;3.63;2.63;;;8.40;99.90;;;;;;5071106;28;20585;-67
2022/11/05 06:27:10;;;;;;;3.20;2.40;;;8.40;99.90;;;;;;5071342;28;20207;-67
2022/11/05 06:29:37;;;;;;;3.00;2.60;;;8.50;99.90;;;;;;5070953;28;20587;-67
2022/11/05 06:32:04;;;;;;;3.15;2.60;;;8.40;99.90;;;;;;5070579;28;20216;-67
2022/11/05 06:34:31;;;;;;;4.45;3.20;;;8.40;99.90;;;;;;5070949;28;20601;-68
2022/11/05 06:36:59;;;;;;;3.85;3.03;;;8.50;99.90;;;;;;5070955;28;20211;-67
2022/11/05 06:39:26;;;;;;;4.63;3.35;;;8.60;99.90;;;;;;5070320;28;20204;-67
2022/11/05 06:41:53;;;;;;;6.03;3.15;;;8.60;99.90;;;;;;5070596;28;20205;-67
2022/11/05 06:44:20;;;;;;;6.70;4.80;;;8.60;99.90;;;;;;5071040;28;20204;-68
2022/11/05 06:46:47;;;;;;;5.03;4.35;;;8.50;99.90;;;;;;5070650;28;20287;-67
2022/11/05 06:49:14;;;;;;;7.03;4.75;;;8.60;99.90;;;;;;5070662;28;20210;-67
2022/11/05 06:51:41;;;;;;;5.15;4.38;;;8.60;99.90;;;;;;5070089;28;20214;-68
2022/11/05 06:54:09;;;;;;;6.20;4.90;;;8.60;99.90;;;;;;5070472;28;20215;-67
2022/11/05 06:56:36;;;;;;;6.75;5.25;;;8.60;99.90;;;;;;5069903;28;20242;-68
2022/11/05 06:59:03;;;;;;;7.43;4.88;;;8.60;99.90;;;;;;5070402;28;20207;-67
2022/11/05 07:01:30;;;;;;;4.95;4.45;;;8.60;99.90;;;;;;5070432;28;20211;-67
2022/11/05 07:03:57;;;;;;;6.60;5.10;;;8.60;99.90;;;;;;5070608;28;20222;-68
2022/11/05 07:06:23;;;;;;;7.57;4.95;;;8.60;99.90;;;;;;5070804;28;20270;-68
2022/11/05 07:08:50;;;;;;;7.00;6.30;;;8.60;99.90;;;;;;5069969;28;20461;-67
2022/11/05 07:11:18;;;;;;;8.00;6.75;;;8.60;99.90;;;;;;5069947;28;20472;-67
2022/11/05 07:13:45;;;;;;;10.32;6.85;;;8.60;99.90;;;;;;5070267;28;20205;-67
2022/11/05 07:16:12;;;;;;;7.63;6.05;;;8.60;99.90;;;;;;5070497;28;20244;-67
2022/11/05 07:18:38;;;;;;;7.07;5.72;;;8.60;99.90;;;;;;5070653;28;20201;-67
2022/11/05 07:21:06;;;;;;;10.95;6.07;;;8.60;99.90;;;;;;5070026;28;20203;-67
2022/11/05 07:23:32;;;;;;;7.53;6.38;;;8.60;99.90;;;;;;5070392;28;20224;-67
2022/11/05 07:25:59;;;;;;;9.35;6.65;;;8.60;99.90;;;;;;5070107;28;20213;-65
2022/11/05 07:28:27;;;;;;;12.02;6.90;;;8.60;99.90;;;;;;5070577;28;20212;-67
2022/11/05 07:30:54;;;;;;;8.32;6.03;;;8.70;99.90;;;;;;5069993;28;20201;-67
2022/11/05 07:33:21;;;;;;;11.27;6.70;;;8.70;99.90;;;;;;5069959;28;20210;-67
2022/11/05 07:35:47;;;;;;;11.05;7.93;;;8.70;99.90;;;;;;5070330;28;20224;-65
2022/11/05 07:38:14;;;;;;;10.23;6.90;;;8.70;99.90;;;;;;5060584;28;20202;-66
2022/11/05 07:40:41;;;;;;;9.40;7.50;;;8.60;99.90;;;;;;5050629;28;20316;-66
2022/11/05 07:43:08;;;;;;;8.82;6.85;;;8.60;99.90;;;;;;5049744;28;20205;-67
2022/11/05 07:45:36;;;;;;;10.13;7.53;;;8.60;99.90;;;;;;5050367;28;20229;-66
2022/11/05 07:48:04;;;;;;;8.77;6.50;;;8.60;99.90;;;;;;5049884;28;20219;-66
2022/11/05 07:50:33;;;;;;;10.50;6.45;;;8.60;99.90;;;;;;5050875;28;20215;-67
2022/11/05 07:53:00;;;;;;;8.18;6.45;;;8.60;99.90;;;;;;5065190;28;20603;-66
2022/11/05 07:55:27;;;;;;;7.75;6.43;;;8.60;99.90;;;;;;5069316;28;20217;-66
2022/11/05 07:57:54;;;;;;;8.30;6.70;;;8.60;99.90;;;;;;5056289;28;20212;-66
2022/11/05 08:00:23;;;;;;;7.47;6.15;;;8.60;99.90;;;;;;5048519;28;20287;-66
2022/11/05 08:02:59;;;;;;;9.10;6.10;;;8.70;99.90;;;;;;5048821;28;20331;-66
2022/11/05 08:05:26;;;;;;;7.57;5.35;;;8.70;99.90;;;;;;5049186;28;20221;-66
2022/11/05 08:07:54;;;;;;;7.35;5.20;;;8.70;99.90;;;;;;5049741;28;20212;-66
2022/11/05 08:10:21;;;;;;;6.97;5.50;;;8.70;99.90;;;;;;5048767;28;20202;-67
2022/11/05 08:12:47;;;;;;;5.85;4.45;;;8.70;99.90;;;;;;5052050;28;20655;-66
2022/11/05 08:15:14;;;;;;;5.05;4.22;;;8.70;99.90;;;;;;5053214;28;20353;-65
2022/11/05 08:17:41;;;;;;;4.78;3.92;;;8.60;99.90;;;;;;5052760;28;20198;-65
2022/11/05 08:20:11;;;;;;;8.05;3.85;;;8.60;99.90;;;;;;5052483;28;20204;-67
2022/11/05 08:22:41;;;;;;;4.03;3.50;;;8.60;99.90;;;;;;5051532;28;20590;-66
2022/11/05 08:25:09;;;;;;;3.63;3.30;;;8.60;99.90;;;;;;5052851;28;20216;-66
2022/11/05 08:27:36;;;;;;;4.38;3.60;;;8.60;99.90;;;;;;5052969;28;20580;-66
2022/11/05 08:30:04;;;;;;;3.58;3.22;;;8.60;99.90;;;;;;5052930;28;20202;-67
2022/11/05 08:32:31;;;;;;;4.35;3.03;;;8.50;99.90;;;;;;5052160;28;20215;-66
2022/11/05 08:34:58;;;;;;;4.22;3.17;;;8.60;99.90;;;;;;5052385;28;20692;-67
2022/11/05 08:37:26;;;;;;;4.10;3.60;;;8.50;99.90;;;;;;5052503;28;20211;-67
2022/11/05 08:39:53;;;;;;;3.65;3.35;;;8.50;99.90;;;;;;5052696;28;20204;-66
2022/11/05 08:42:20;;;;;;;3.30;3.00;;;8.40;99.90;;;;;;5051921;28;20729;-66
2022/11/05 08:44:47;;;;;;;4.30;3.90;;;8.50;99.90;;;;;;5051918;28;20224;-66
2022/11/05 08:47:13;;;;;;;6.28;3.10;;;8.50;99.90;;;;;;5052930;28;20199;-67
2022/11/05 08:49:40;;;;;;;3.95;3.05;;;8.60;99.90;;;;;;5051894;28;20205;-65
2022/11/05 08:52:07;;;;;;;3.05;2.67;;;8.60;99.90;;;;;;5052217;28;20686;-67
2022/11/05 08:54:36;;;;;;;3.10;2.40;;;8.60;99.90;;;;;;5052126;28;20224;-66
2022/11/05 08:57:04;;;;;;;2.83;2.50;;;8.60;99.90;;;;;;5051513;28;20859;-66
2022/11/05 08:59:31;;;;;;;2.60;2.35;;;8.60;99.90;;;;;;5052785;28;20300;-65
2022/11/05 09:01:58;;;;;;;3.28;2.40;;;8.50;99.90;;;;;;5050378;28;20736;-66
2022/11/05 09:04:25;;;;;;;6.45;3.42;;;8.50;99.90;;;;;;5050828;28;20224;-66
2022/11/05 09:06:53;;;;;;;3.65;3.10;;;8.60;99.90;;;;;;5047911;28;20254;-67
2022/11/05 09:09:19;;;;;;;3.25;2.65;;;8.60;99.90;;;;;;5050921;28;20619;-67
2022/11/05 09:11:47;;;;;;;2.35;1.92;;;8.60;99.90;;;;;;5051530;28;20216;-66
2022/11/05 09:14:14;;;;;;;3.03;2.45;;;8.60;99.90;;;;;;5051998;28;20306;-67
2022/11/05 09:16:42;;;;;;;2.40;2.20;;;8.50;99.90;;;;;;5051622;28;20795;-66
2022/11/05 09:19:09;;;;;;;2.42;2.22;;;8.60;99.90;;;;;;5050970;28;20212;-66
2022/11/05 09:21:36;;;;;;;2.80;2.40;;;8.70;99.90;;;;;;5051074;28;20202;-66
2022/11/05 09:24:03;;;;;;;2.95;2.50;;;8.70;99.90;;;;;;5051287;28;20209;-67
2022/11/05 09:26:30;;;;;;;2.65;1.95;;;8.70;99.90;;;;;;5051507;28;20202;-66
2022/11/05 09:28:58;;;;;;;3.05;2.13;;;8.80;99.90;;;;;;5050589;28;20196;-66
2022/11/05 09:31:24;;;;;;;2.95;2.00;;;8.90;99.90;;;;;;5049789;28;20205;-66
2022/11/05 09:33:51;;;;;;;2.35;2.08;;;8.90;99.90;;;;;;5051325;28;20200;-67
2022/11/05 09:36:18;;;;;;;2.30;2.10;;;9.00;99.90;;;;;;5048699;28;20228;-66
2022/11/05 09:38:45;;;;;;;2.88;2.20;;;9.00;99.90;;;;;;5051323;28;20211;-66
2022/11/05 09:41:16;;;;;;;2.10;1.88;;;9.10;99.90;;;;;;5051684;28;20208;-66
2022/11/05 09:43:48;;;;;;;3.33;2.13;;;9.20;99.90;;;;;;5051985;28;20213;-65
2022/11/05 09:46:21;;;;;;;2.63;2.25;;;9.30;99.90;;;;;;5051523;28;20225;-66
2022/11/05 09:48:52;;;;;;;1.90;1.80;;;9.40;99.90;;;;;;5049900;28;20204;-66
2022/11/05 09:51:19;;;;;;;2.70;2.03;;;9.60;99.90;;;;;;5049414;28;20212;-65
2022/11/05 09:53:46;;;;;;;4.80;2.15;;;9.70;99.90;;;;;;5049108;28;20201;-66
2022/11/05 09:56:21;;;;;;;2.25;2.05;;;9.90;99.90;;;;;;5050392;28;20232;-66
2022/11/05 09:58:52;;;;;;;2.45;2.00;;;9.90;99.90;;;;;;5051571;28;20586;-66
2022/11/05 10:01:24;;;;;;;4.15;2.00;;;9.90;99.90;;;;;;5050202;28;20209;-66
2022/11/05 10:03:54;;;;;;;2.75;2.35;;;9.80;99.90;;;;;;5050875;28;20251;-66
2022/11/05 10:06:23;;;;;;;2.30;2.10;;;9.70;99.90;;;;;;5050832;28;20217;-67
2022/11/05 10:08:55;;;;;;;2.90;2.63;;;9.60;99.90;;;;;;5050601;28;20209;-66
2022/11/05 10:11:27;;;;;;;2.83;2.55;;;9.50;99.90;;;;;;5050619;28;20209;-66
2022/11/05 10:13:58;;;;;;;2.40;2.20;;;9.50;99.90;;;;;;5051226;28;20203;-66
2022/11/05 10:16:31;;;;;;;2.65;2.20;;;9.40;99.90;;;;;;5050558;28;20221;-67
2022/11/05 10:19:05;;;;;;;2.22;2.03;;;9.40;99.90;;;;;;5050846;28;20300;-66
2022/11/05 10:21:32;;;;;;;3.08;2.60;;;9.30;99.90;;;;;;5048073;28;20220;-67
2022/11/05 10:24:00;;;;;;;3.35;2.40;;;9.30;99.90;;;;;;5050928;28;20238;-67
2022/11/05 10:26:28;;;;;;;3.45;2.67;;;9.20;99.90;;;;;;5050199;28;20240;-67
2022/11/05 10:28:56;;;;;;;2.40;2.20;;;9.20;99.90;;;;;;5053591;28;20204;-67
2022/11/05 10:31:23;;;;;;;3.58;2.67;;;9.20;99.90;;;;;;5063694;28;20672;-66
2022/11/05 10:33:54;;;;;;;2.83;2.40;;;9.20;99.90;;;;;;5050040;28;20198;-67
2022/11/05 10:36:23;;;;;;;3.10;2.70;;;9.20;99.90;;;;;;5048287;28;20705;-65
2022/11/05 10:38:50;;;;;;;3.00;2.17;;;9.10;99.90;;;;;;5050098;28;20213;-66
2022/11/05 10:41:33;;;;;;;5.05;2.88;;;9.10;99.90;;;;;;5049603;28;20201;-65
2022/11/05 10:44:12;;;;;;;6.25;2.92;;;9.10;99.90;;;;;;5049634;28;20209;-66
2022/11/05 10:46:45;;;;;;;4.05;3.10;;;9.10;99.90;;;;;;5049613;28;20688;-66
2022/11/05 10:49:26;;;;;;;4.40;3.30;;;9.10;99.90;;;;;;5050066;28;20597;-66
2022/11/05 10:51:57;;;;;;;3.65;3.22;;;9.10;99.90;;;;;;5050029;28;20209;-66
2022/11/05 10:54:30;;;;;;;4.18;3.47;;;9.10;99.90;;;;;;5069272;28;20613;-67
2022/11/05 10:56:56;;;;;;;4.25;3.47;;;9.20;99.90;;;;;;5068689;28;20227;-66
2022/11/05 10:59:25;;;;;;;3.92;3.50;;;9.20;99.90;;;;;;5067120;28;20218;-66
2022/11/05 11:02:00;;;;;;;4.68;4.03;;;9.30;99.90;;;;;;5069243;28;20216;-66
2022/11/05 11:04:30;;;;;;;5.65;3.58;;;9.30;99.90;;;;;;5069859;28;20234;-66
2022/11/05 11:06:59;;;;;;;8.60;3.92;;;9.30;99.90;;;;;;5069627;28;20678;-67
2022/11/05 11:09:28;;;;;;;5.43;3.50;;;9.30;99.90;;;;;;5069316;28;20500;-66
2022/11/05 11:12:00;;;;;;;4.43;3.60;;;9.30;99.90;;;;;;5059988;28;20209;-67
2022/11/05 11:14:27;;;;;;;4.25;3.72;;;9.30;99.90;;;;;;5049365;28;20226;-65
2022/11/05 11:16:56;;;;;;;11.02;3.85;;;9.40;99.90;;;;;;5050040;28;20676;-66
2022/11/05 11:19:35;;;;;;;5.05;3.70;;;9.30;99.90;;;;;;5049286;28;20216;-66
2022/11/05 11:22:19;;;;;;;3.75;2.90;;;9.40;99.90;;;;;;5049210;28;20582;-66
2022/11/05 11:24:48;;;;;;;4.00;3.45;;;9.30;99.90;;;;;;5034650;28;20221;-66
2022/11/05 11:27:21;;;;;;;5.50;3.72;;;9.30;99.90;;;;;;5028896;28;20596;-65
2022/11/05 11:29:50;;;;;;;5.40;3.05;;;9.30;99.90;;;;;;5048631;28;20209;-66
2022/11/05 11:32:21;;;;;;;3.83;3.40;;;9.30;99.90;;;;;;5048502;28;20688;-67
2022/11/05 11:34:52;;;;;;;4.82;3.42;;;9.40;99.90;;;;;;5049733;28;20315;-66
2022/11/05 11:37:24;;;;;;;4.35;2.78;;;9.40;99.90;;;;;;5049325;28;20221;-66
2022/11/05 11:39:54;;;;;;;3.20;2.90;;;9.50;99.90;;;;;;5050117;28;20216;-66
2022/11/05 11:42:28;;;;;;;6.97;3.65;;;9.50;99.90;;;;;;5048805;28;20606;-66
2022/11/05 11:44:57;;;;;;;5.72;3.38;;;9.60;99.90;;;;;;5052189;28;20598;-67
2022/11/05 11:47:27;;;;;;;4.50;3.90;;;9.60;99.90;;;;;;5052888;28;20208;-67
2022/11/05 11:49:57;;;;;;;3.53;2.97;;;9.70;99.90;;;;;;5053027;28;20206;-67
2022/11/05 11:52:29;;;;;;;3.25;2.95;;;9.70;99.90;;;;;;5051548;28;20216;-65
2022/11/05 11:55:20;;;;;;;6.47;3.63;;;9.70;99.90;;;;;;5053643;28;20411;-66
2022/11/05 11:57:49;;;;;;;4.85;3.72;;;9.70;99.90;;;;;;5055552;28;20218;-64
2022/11/05 12:00:17;;;;;;;4.97;3.60;;;9.70;99.90;;;;;;5052009;28;20213;-66
2022/11/05 12:03:14;;;;;;;3.92;3.35;;;9.80;99.90;;;;;;5051689;28;20582;-66
2022/11/05 12:05:47;;;;;;;4.25;3.20;;;9.80;99.90;;;;;;5027226;28;20224;-67
2022/11/05 12:08:41;;;;;;;3.35;3.05;;;9.90;99.90;;;;;;5052226;28;20254;-66
2022/11/05 12:11:14;;;;;;;3.38;3.03;;;10.00;99.90;;;;;;5051498;28;20219;-66
2022/11/05 12:14:02;;;;;;;4.60;3.30;;;10.00;99.90;;;;;;5051578;28;20215;-66
2022/11/05 12:16:50;;;;;;;4.45;3.70;;;10.10;99.90;;;;;;5051958;28;20225;-66
2022/11/05 12:19:28;;;;;;;3.70;3.03;;;10.20;99.90;;;;;;5051414;28;20204;-66
2022/11/05 12:22:05;;;;;;;4.75;3.45;;;10.10;99.90;;;;;;5052034;28;20216;-66
2022/11/05 12:25:01;;;;;;;3.95;3.65;;;10.10;99.90;;;;;;5052500;28;20571;-66
2022/11/05 12:27:41;;;;;;;3.67;3.10;;;10.10;99.90;;;;;;5053347;28;20614;-66
2022/11/05 12:30:13;;;;;;;3.55;3.15;;;10.00;99.90;;;;;;5053229;28;20255;-67
2022/11/05 12:33:12;;;;;;;3.85;3.45;;;9.90;99.90;;;;;;5052516;28;20239;-66
2022/11/05 12:35:47;;;;;;;4.82;3.60;;;9.90;99.90;;;;;;5054664;28;20225;-64
2022/11/05 12:38:28;;;;;;;5.53;4.70;;;9.80;99.90;;;;;;5072688;28;20223;-66
2022/11/05 12:41:08;;;;;;;5.30;3.58;;;9.70;99.90;;;;;;5072913;28;20574;-66
2022/11/05 12:43:46;;;;;;;5.10;3.60;;;9.70;99.90;;;;;;5071744;28;20203;-66
2022/11/05 12:46:26;;;;;;;5.00;4.03;;;9.60;99.90;;;;;;5072378;28;20223;-66
2022/11/05 12:49:19;;;;;;;4.43;4.00;;;9.50;99.90;;;;;;5072362;28;20204;-67
2022/11/05 12:52:01;;;;;;;4.22;3.50;;;9.50;99.90;;;;;;5071886;28;20205;-66
2022/11/05 12:54:41;;;;;;;5.38;3.90;;;9.50;99.90;;;;;;5071352;28;20228;-66
2022/11/05 12:57:12;;;;;;;4.38;3.67;;;9.50;99.90;;;;;;5065576;28;20599;-66
2022/11/05 12:59:42;;;;;;;4.45;3.65;;;9.50;99.90;;;;;;5052369;28;20215;-67
2022/11/05 13:02:16;;;;;;;4.43;3.33;;;9.50;99.90;;;;;;5051388;28;20695;-67
2022/11/05 13:04:49;;;;;;;3.90;3.47;;;9.50;99.90;;;;;;5052247;28;20232;-66
2022/11/05 13:07:21;;;;;;;6.70;3.97;;;9.50;99.90;;;;;;5052354;28;20284;-66
2022/11/05 13:09:53;;;;;;;5.32;3.90;;;9.50;99.90;;;;;;5052237;28;20212;-66
2022/11/05 13:12:24;;;;;;;7.20;4.18;;;9.50;99.90;;;;;;5050748;28;20688;-66
2022/11/05 13:14:56;;;;;;;5.40;4.03;;;9.50;99.90;;;;;;5052133;28;20316;-66
2022/11/05 13:17:27;;;;;;;3.63;3.33;;;9.50;99.90;;;;;;5052225;28;20226;-66
2022/11/05 13:20:00;;;;;;;4.18;3.55;;;9.60;99.90;;;;;;5051599;28;20204;-66
2022/11/05 13:22:35;;;;;;;4.45;3.58;;;9.60;99.90;;;;;;5045399;28;20202;-67
2022/11/05 13:25:10;;;;;;;4.43;3.72;;;9.60;99.90;;;;;;5040262;28;20217;-66
2022/11/05 13:27:48;;;;;;;4.95;4.13;;;9.60;99.90;;;;;;5039885;28;20200;-66
2022/11/05 13:30:18;;;;;;;3.85;3.50;;;9.60;99.90;;;;;;5041229;28;20572;-67
2022/11/05 13:32:49;;;;;;;4.93;3.97;;;9.60;99.90;;;;;;5038998;28;20201;-66
2022/11/05 13:35:20;;;;;;;4.32;3.85;;;9.70;99.90;;;;;;5039078;28;20729;-66
2022/11/05 13:41:02;;;;;;;5.97;4.32;;;9.70;99.90;;;;;;4998778;28;20195;-66
2022/11/05 13:43:44;;;;;;;5.40;4.32;;;9.70;99.90;;;;;;5032170;28;20198;-66
2022/11/05 13:46:34;;;;;;;4.60;4.00;;;9.70;99.90;;;;;;5041572;28;20797;-67
2022/11/05 13:49:19;;;;;;;7.22;4.43;;;9.70;99.90;;;;;;5040469;28;20190;-67
2022/11/05 13:51:53;;;;;;;5.60;4.30;;;9.80;99.90;;;;;;5039483;28;20208;-66
2022/11/05 13:54:48;;;;;;;5.75;4.30;;;9.80;99.90;;;;;;5033622;28;20202;-65
2022/11/05 13:57:31;;;;;;;4.90;3.75;;;9.80;99.90;;;;;;5044131;28;20221;-67
2022/11/05 14:00:06;;;;;;;6.53;4.15;;;9.70;99.90;;;;;;5051527;28;20208;-66
2022/11/05 14:02:39;;;;;;;5.40;4.00;;;9.70;99.90;;;;;;5050029;28;20201;-66